Time;durP1;ratioP1;P1;durP2;ratioP2;P2;SDS_P1;SDS_P2;PMS_P1;PMS_P2;Temp;Humidity;BMP_temperature;BMP_pressure;BME280_temperature;BME280_humidity;BME280_pressure;Samples;Min_cycle;Max_cycle;Signal;HPM_P1;HPM_P2
2023/04/11 00:02:47;;;;;;;1.38;0.98;;;18.90;44.20;;;;;;5984977;29;20035;-68
2023/04/11 00:05:48;;;;;;;1.85;1.20;;;18.90;44.20;;;;;;5985658;29;20038;-68
2023/04/11 00:08:49;;;;;;;2.75;1.27;;;18.80;44.80;;;;;;5985097;29;20425;-67
2023/04/11 00:11:50;;;;;;;4.13;1.40;;;18.80;44.20;;;;;;5985279;29;20434;-67
2023/04/11 00:14:52;;;;;;;4.55;1.90;;;18.70;44.10;;;;;;5985231;29;20026;-69
2023/04/11 00:17:53;;;;;;;2.67;1.42;;;18.70;44.10;;;;;;5984947;29;20048;-68
2023/04/11 00:20:54;;;;;;;1.58;1.17;;;18.70;43.90;;;;;;5985013;29;20030;-67
2023/04/11 00:23:55;;;;;;;2.60;1.33;;;18.70;43.90;;;;;;6013948;29;20229;-69
2023/04/11 00:26:57;;;;;;;1.50;1.33;;;18.70;43.80;;;;;;5984906;29;20034;-68
2023/04/11 00:29:58;;;;;;;6.80;1.70;;;18.70;44.10;;;;;;5997865;29;20106;-68
2023/04/11 00:32:59;;;;;;;2.55;1.50;;;18.60;43.80;;;;;;5984984;29;20135;-66
2023/04/11 00:35:59;;;;;;;2.50;1.33;;;18.60;43.80;;;;;;6014141;29;20100;-68
2023/04/11 00:39:00;;;;;;;2.30;1.00;;;18.60;43.80;;;;;;6028243;29;20129;-67
2023/04/11 00:42:06;;;;;;;2.78;1.10;;;18.60;43.80;;;;;;5993986;29;20627;-68
2023/04/11 00:45:07;;;;;;;6.13;1.40;;;18.60;43.80;;;;;;6013675;29;20732;-68
2023/04/11 00:48:09;;;;;;;2.53;1.13;;;18.60;43.70;;;;;;5982240;29;20341;-68
2023/04/11 00:51:10;;;;;;;1.70;1.00;;;18.60;43.50;;;;;;6013169;29;20041;-69
2023/04/11 00:54:12;;;;;;;2.95;1.20;;;18.60;43.50;;;;;;6013357;29;20134;-67
2023/04/11 00:57:14;;;;;;;4.22;1.60;;;18.50;43.50;;;;;;6012955;29;20043;-67
2023/04/11 01:00:15;;;;;;;1.42;1.15;;;18.50;43.50;;;;;;5997662;29;20097;-69
2023/04/11 01:03:17;;;;;;;1.40;1.10;;;18.50;43.40;;;;;;5982580;29;20069;-69
2023/04/11 01:06:19;;;;;;;1.77;1.25;;;18.50;43.40;;;;;;5982498;29;20027;-68
2023/04/11 01:09:23;;;;;;;1.92;1.00;;;18.50;43.30;;;;;;5982142;29;20034;-67
2023/04/11 01:12:24;;;;;;;1.98;1.20;;;18.50;43.20;;;;;;5985695;29;20140;-67
2023/04/11 01:15:25;;;;;;;1.75;1.20;;;18.50;43.10;;;;;;5982221;29;20062;-68
2023/04/11 01:18:26;;;;;;;2.25;0.85;;;18.40;43.20;;;;;;6012780;29;20049;-68
2023/04/11 01:21:27;;;;;;;4.95;1.05;;;18.40;43.20;;;;;;6015089;29;20260;-66
2023/04/11 01:24:28;;;;;;;2.47;1.17;;;18.30;43.20;;;;;;6015691;29;20083;-69
2023/04/11 01:27:30;;;;;;;4.30;1.50;;;18.30;43.30;;;;;;6016075;29;20113;-68
2023/04/11 01:30:30;;;;;;;4.70;1.52;;;18.30;43.30;;;;;;5987005;29;20042;-66
2023/04/11 01:33:31;;;;;;;3.35;1.52;;;18.30;43.30;;;;;;5983277;29;20038;-70
2023/04/11 01:36:32;;;;;;;4.53;1.38;;;18.30;43.20;;;;;;5983676;29;20035;-68
2023/04/11 01:39:33;;;;;;;2.78;1.10;;;18.30;43.20;;;;;;6012326;29;20112;-68
2023/04/11 01:42:36;;;;;;;5.97;1.90;;;18.30;43.10;;;;;;6035633;29;20057;-67
2023/04/11 01:45:37;;;;;;;3.15;1.55;;;18.40;43.10;;;;;;5982509;29;20035;-67
2023/04/11 01:48:38;;;;;;;5.68;1.38;;;18.30;43.20;;;;;;5989316;29;20083;-68
2023/04/11 01:51:40;;;;;;;2.10;1.20;;;18.30;43.30;;;;;;5977494;29;20022;-68
2023/04/11 01:54:40;;;;;;;1.95;1.13;;;18.20;43.40;;;;;;5983170;29;20087;-69
2023/04/11 01:57:41;;;;;;;2.60;1.38;;;18.20;43.50;;;;;;6011864;29;20062;-67
2023/04/11 02:00:42;;;;;;;2.90;1.20;;;18.20;43.60;;;;;;5981517;29;20092;-67
2023/04/11 02:03:44;;;;;;;3.30;1.20;;;18.20;43.70;;;;;;6012200;29;20030;-67
2023/04/11 02:06:44;;;;;;;2.47;1.35;;;18.20;43.70;;;;;;5983568;29;20026;-68
2023/04/11 02:09:46;;;;;;;4.38;1.20;;;18.20;43.80;;;;;;5973849;29;20069;-67
2023/04/11 02:12:46;;;;;;;3.22;1.42;;;18.10;43.70;;;;;;5998299;29;20026;-68
2023/04/11 02:15:47;;;;;;;4.22;1.55;;;18.10;43.70;;;;;;6034489;29;20049;-70
2023/04/11 02:18:48;;;;;;;3.10;1.30;;;18.20;43.60;;;;;;6033715;29;20544;-68
2023/04/11 02:21:49;;;;;;;3.42;1.40;;;18.20;43.70;;;;;;6032224;29;20523;-68
2023/04/11 02:24:50;;;;;;;1.67;1.30;;;18.20;44.00;;;;;;6011756;29;20038;-67
2023/04/11 02:27:51;;;;;;;4.18;1.58;;;18.20;44.30;;;;;;5982514;29;20041;-68
2023/04/11 02:30:52;;;;;;;6.43;1.52;;;18.10;44.50;;;;;;5982523;29;20519;-68
2023/04/11 02:33:53;;;;;;;2.45;1.40;;;18.10;44.60;;;;;;6019291;29;20302;-70
2023/04/11 02:36:54;;;;;;;1.52;1.10;;;18.10;44.80;;;;;;6034187;29;20048;-68
2023/04/11 02:39:56;;;;;;;4.60;1.45;;;18.10;45.00;;;;;;5981353;29;20452;-67
2023/04/11 02:42:57;;;;;;;3.10;1.27;;;18.10;45.00;;;;;;6011367;29;20046;-66
2023/04/11 02:45:59;;;;;;;2.72;1.13;;;18.00;44.80;;;;;;5982030;29;20380;-69
2023/04/11 02:49:00;;;;;;;2.63;1.10;;;18.10;44.90;;;;;;5980385;29;20118;-68
2023/04/11 02:52:01;;;;;;;3.75;1.38;;;18.10;44.70;;;;;;6010962;29;20036;-66
2023/04/11 02:55:03;;;;;;;1.60;1.00;;;18.00;44.70;;;;;;5980960;29;20606;-68
2023/04/11 02:58:04;;;;;;;1.35;1.23;;;18.00;44.90;;;;;;5980210;29;20049;-67
2023/04/11 03:01:06;;;;;;;2.13;1.35;;;17.90;45.10;;;;;;5981991;29;20027;-69
2023/04/11 03:04:07;;;;;;;2.22;1.42;;;17.90;45.30;;;;;;5980465;29;20121;-67
2023/04/11 03:07:31;;;;;;;1.73;1.10;;;17.90;45.40;;;;;;6010976;29;20046;-67
2023/04/11 03:10:32;;;;;;;3.10;1.42;;;17.90;45.50;;;;;;6013096;29;20039;-67
2023/04/11 03:13:36;;;;;;;2.65;1.50;;;17.80;45.80;;;;;;6033859;29;20083;-69
2023/04/11 03:16:36;;;;;;;5.75;1.48;;;17.80;46.20;;;;;;6033724;29;20083;-68
2023/04/11 03:19:38;;;;;;;5.70;1.58;;;17.80;46.40;;;;;;5989877;29;20110;-69
2023/04/11 03:22:39;;;;;;;1.98;1.35;;;17.70;46.70;;;;;;6010455;29;20462;-68
2023/04/11 03:25:40;;;;;;;2.83;1.40;;;17.70;47.00;;;;;;6010857;29;20042;-68
2023/04/11 03:28:42;;;;;;;5.55;1.30;;;17.70;47.20;;;;;;6010594;29;20318;-68
2023/04/11 03:31:44;;;;;;;2.42;1.08;;;17.60;48.40;;;;;;6014927;29;20066;-67
2023/04/11 03:34:45;;;;;;;3.45;1.80;;;17.50;48.30;;;;;;6015088;29;20103;-67
2023/04/11 03:37:47;;;;;;;3.30;1.50;;;17.30;49.30;;;;;;6020382;29;20076;-67
2023/04/11 03:40:49;;;;;;;2.88;1.58;;;17.20;49.80;;;;;;6006817;29;20415;-68
2023/04/11 03:43:54;;;;;;;1.95;1.48;;;17.10;50.30;;;;;;6036433;29;20078;-68
2023/04/11 03:46:55;;;;;;;3.47;1.95;;;17.00;50.90;;;;;;6014640;29;20490;-67
2023/04/11 03:49:59;;;;;;;4.13;1.88;;;16.90;51.20;;;;;;6014777;29;20042;-68
2023/04/11 03:52:59;;;;;;;3.28;1.80;;;16.80;51.50;;;;;;5985218;29;20034;-66
2023/04/11 03:56:03;;;;;;;3.33;1.42;;;16.80;51.90;;;;;;6014731;29;20030;-67
2023/04/11 03:59:08;;;;;;;5.47;2.58;;;16.70;52.10;;;;;;6014462;29;20049;-67
2023/04/11 04:02:24;;;;;;;1.58;1.25;;;16.70;52.10;;;;;;5991352;29;20597;-68
2023/04/11 04:05:26;;;;;;;4.00;1.50;;;16.70;52.30;;;;;;5961167;29;20134;-67
2023/04/11 04:08:27;;;;;;;3.83;1.60;;;16.70;52.50;;;;;;5960863;29;20035;-69
2023/04/11 04:11:28;;;;;;;5.03;1.83;;;16.70;52.80;;;;;;5981191;29;20475;-68
2023/04/11 04:14:30;;;;;;;5.90;2.13;;;16.70;53.10;;;;;;6033233;29;20187;-67
2023/04/11 04:17:32;;;;;;;5.45;2.05;;;16.60;53.20;;;;;;6013639;29;20041;-68
2023/04/11 04:20:34;;;;;;;1.75;1.58;;;16.60;53.60;;;;;;5983408;29;20110;-67
2023/04/11 04:23:37;;;;;;;2.60;1.70;;;16.60;53.90;;;;;;5985008;29;20449;-68
2023/04/11 04:27:01;;;;;;;2.80;1.70;;;16.50;54.00;;;;;;5995237;29;20142;-68
2023/04/11 04:30:14;;;;;;;3.80;1.60;;;16.50;54.50;;;;;;6013934;29;20053;-67
2023/04/11 04:33:35;;;;;;;4.95;1.50;;;16.40;55.00;;;;;;5984435;29;20042;-68
2023/04/11 04:36:45;;;;;;;5.25;1.77;;;16.40;55.20;;;;;;6013382;29;20045;-68
2023/04/11 04:40:06;;;;;;;5.18;1.90;;;16.30;55.40;;;;;;6034626;29;20026;-67
2023/04/11 04:43:17;;;;;;;3.67;2.00;;;16.30;55.60;;;;;;6035575;29;20042;-67
2023/04/11 04:46:35;;;;;;;3.42;1.80;;;16.20;56.20;;;;;;5976521;29;20099;-68
2023/04/11 04:49:38;;;;;;;5.63;1.83;;;16.20;56.60;;;;;;5990233;29;20030;-69
2023/04/11 04:52:38;;;;;;;3.13;1.80;;;16.20;56.60;;;;;;5972601;29;20050;-67
2023/04/11 04:55:40;;;;;;;7.80;2.08;;;16.20;56.80;;;;;;6013498;29;20130;-67
2023/04/11 04:58:41;;;;;;;9.50;2.30;;;16.10;56.80;;;;;;5982868;29;20034;-68
2023/04/11 05:01:45;;;;;;;5.75;2.33;;;16.20;56.80;;;;;;6013341;29;20034;-67
2023/04/11 05:04:50;;;;;;;4.30;2.83;;;16.20;56.80;;;;;;6013535;29;20032;-67
2023/04/11 05:07:52;;;;;;;2.92;2.22;;;16.20;56.80;;;;;;6013162;29;20782;-68
2023/04/11 05:10:52;;;;;;;6.03;2.30;;;16.30;56.70;;;;;;6013296;29;20083;-69
2023/04/11 05:13:54;;;;;;;9.75;3.17;;;16.30;56.80;;;;;;6012914;29;20618;-67
2023/04/11 05:16:55;;;;;;;7.50;2.40;;;16.30;56.90;;;;;;5997101;29;20038;-69
2023/04/11 05:19:56;;;;;;;9.10;2.92;;;16.30;57.00;;;;;;6012414;29;20046;-68
2023/04/11 05:22:58;;;;;;;6.15;2.20;;;16.40;57.00;;;;;;5992489;29;20033;-68
2023/04/11 05:26:00;;;;;;;4.97;2.50;;;16.40;57.00;;;;;;6004472;29;20022;-69
2023/04/11 05:29:01;;;;;;;6.20;2.22;;;16.40;57.20;;;;;;6004019;29;20141;-67
2023/04/11 05:32:02;;;;;;;8.57;2.60;;;16.40;57.20;;;;;;6035068;29;20745;-67
2023/04/11 05:35:04;;;;;;;4.65;2.45;;;16.50;57.10;;;;;;6003964;29;20030;-68
2023/04/11 05:38:19;;;;;;;10.40;2.47;;;16.50;57.00;;;;;;5994004;29;20122;-68
2023/04/11 05:41:20;;;;;;;5.75;2.05;;;16.50;57.00;;;;;;6011898;29;20434;-68
2023/04/11 05:44:21;;;;;;;6.38;2.85;;;16.60;57.10;;;;;;5982826;29;20030;-68
2023/04/11 05:47:22;;;;;;;5.00;2.50;;;16.60;57.00;;;;;;5982774;29;20034;-68
2023/04/11 05:50:23;;;;;;;11.10;2.10;;;16.70;56.90;;;;;;5982754;29;20121;-68
2023/04/11 05:53:24;;;;;;;3.67;1.98;;;16.70;57.00;;;;;;5980491;29;20384;-69
2023/04/11 05:56:25;;;;;;;4.95;2.40;;;16.70;57.10;;;;;;6012002;29;20054;-68
2023/04/11 05:59:27;;;;;;;3.08;2.22;;;16.80;57.10;;;;;;5982509;29;20034;-68
2023/04/11 06:02:28;;;;;;;7.32;2.75;;;16.80;57.10;;;;;;5982379;29;20547;-67
2023/04/11 06:05:30;;;;;;;6.63;2.53;;;16.90;57.20;;;;;;5982512;29;20018;-68
2023/04/11 06:08:31;;;;;;;8.13;2.65;;;16.90;57.10;;;;;;6010746;29;20131;-67
2023/04/11 06:11:31;;;;;;;9.30;4.32;;;17.00;57.10;;;;;;5991981;29;20089;-68
2023/04/11 06:14:39;;;;;;;4.40;2.40;;;17.00;57.20;;;;;;6311878;27;20373;-68
2023/04/11 06:17:40;;;;;;;4.50;2.33;;;17.00;57.20;;;;;;6311851;28;20369;-68
2023/04/11 06:20:41;;;;;;;4.93;2.40;;;17.00;57.30;;;;;;6312192;28;20103;-67
2023/04/11 06:23:42;;;;;;;4.07;2.80;;;17.00;57.30;;;;;;6311965;28;20059;-68
2023/04/11 06:26:43;;;;;;;3.95;2.65;;;16.90;57.50;;;;;;6311876;28;20130;-68
2023/04/11 06:29:44;;;;;;;9.20;2.65;;;16.80;58.00;;;;;;6310966;28;20024;-68
2023/04/11 06:32:45;;;;;;;8.20;2.78;;;16.70;58.30;;;;;;6310875;28;20396;-67
2023/04/11 06:35:46;;;;;;;7.78;3.30;;;16.60;58.50;;;;;;6309802;28;20048;-67
2023/04/11 06:38:48;;;;;;;6.65;2.75;;;16.50;58.60;;;;;;6309651;28;20452;-67
2023/04/11 06:41:49;;;;;;;7.93;2.67;;;16.50;58.80;;;;;;6312236;28;20113;-67
2023/04/11 06:44:58;;;;;;;4.70;2.08;;;16.30;59.10;;;;;;6312191;28;20040;-67
2023/04/11 06:47:59;;;;;;;3.28;1.88;;;16.30;59.50;;;;;;6311370;28;20032;-69
2023/04/11 06:51:00;;;;;;;3.28;1.80;;;16.10;60.60;;;;;;6286126;28;20173;-69
2023/04/11 06:54:01;;;;;;;3.45;2.00;;;16.00;60.30;;;;;;6309666;28;20012;-67
2023/04/11 06:57:02;;;;;;;8.95;2.42;;;16.00;60.80;;;;;;6311312;28;20461;-71
2023/04/11 07:00:06;;;;;;;2.50;1.88;;;15.90;60.90;;;;;;6310987;28;20032;-69
2023/04/11 07:03:07;;;;;;;3.08;2.05;;;15.90;60.90;;;;;;6307878;28;20099;-67
2023/04/11 07:06:08;;;;;;;4.18;2.28;;;16.00;60.70;;;;;;6284350;28;20037;-67
2023/04/11 07:09:09;;;;;;;4.47;2.28;;;16.00;60.20;;;;;;6285315;28;20082;-67
2023/04/11 07:12:09;;;;;;;10.35;2.33;;;16.10;59.90;;;;;;6301282;28;20054;-68
2023/04/11 07:15:10;;;;;;;10.30;2.33;;;16.10;59.70;;;;;;6309061;28;20039;-67
2023/04/11 07:18:11;;;;;;;4.03;1.98;;;16.20;60.00;;;;;;6309300;28;20116;-68
2023/04/11 07:21:13;;;;;;;2.78;1.75;;;16.40;59.00;;;;;;6309197;28;20082;-68
2023/04/11 07:24:17;;;;;;;1.65;1.40;;;16.50;58.60;;;;;;6302548;28;20050;-69
2023/04/11 07:27:18;;;;;;;6.93;2.30;;;16.60;58.40;;;;;;6294062;28;21215;-68
2023/04/11 07:30:19;;;;;;;3.30;2.30;;;16.70;58.00;;;;;;6292551;28;20103;-67
2023/04/11 07:33:20;;;;;;;5.25;1.95;;;16.70;57.80;;;;;;6293768;28;20035;-67
2023/04/11 07:36:21;;;;;;;3.65;2.05;;;16.70;57.60;;;;;;6293917;28;20029;-67
2023/04/11 07:39:22;;;;;;;14.88;2.92;;;16.70;57.50;;;;;;6292219;28;20020;-69
2023/04/11 07:42:23;;;;;;;4.82;1.92;;;16.70;57.60;;;;;;6293637;28;20036;-68
2023/04/11 07:45:23;;;;;;;3.60;2.05;;;16.60;57.60;;;;;;6293347;28;20154;-67
2023/04/11 07:48:26;;;;;;;4.57;1.83;;;16.60;57.60;;;;;;6291857;28;20092;-67
2023/04/11 07:51:27;;;;;;;7.35;1.85;;;16.50;57.70;;;;;;6291611;28;20516;-69
2023/04/11 07:54:28;;;;;;;3.45;1.80;;;16.50;57.90;;;;;;6293018;28;20112;-69
2023/04/11 07:57:29;;;;;;;2.63;1.85;;;16.50;58.20;;;;;;6292895;28;20020;-68
2023/04/11 08:00:33;;;;;;;4.75;1.67;;;16.30;58.60;;;;;;6280562;28;20028;-68
2023/04/11 08:03:34;;;;;;;7.25;1.77;;;16.20;59.30;;;;;;6268191;28;20044;-67
2023/04/11 08:06:35;;;;;;;2.70;1.45;;;16.10;59.80;;;;;;6268197;28;20028;-67
2023/04/11 08:09:36;;;;;;;1.05;0.77;;;16.00;60.20;;;;;;6266608;28;20488;-67
2023/04/11 08:12:36;;;;;;;1.83;0.75;;;15.90;60.60;;;;;;6285828;28;20488;-69
2023/04/11 08:15:37;;;;;;;7.40;1.08;;;15.80;60.40;;;;;;6293432;28;20039;-68
2023/04/11 08:18:40;;;;;;;7.95;0.80;;;15.70;60.10;;;;;;6292308;28;20070;-68
2023/04/11 08:21:42;;;;;;;2.13;1.17;;;15.70;60.00;;;;;;6292610;28;20025;-67
2023/04/11 08:24:43;;;;;;;6.82;0.95;;;15.70;59.70;;;;;;6292580;28;20043;-68
2023/04/11 08:27:44;;;;;;;4.90;1.30;;;15.70;59.50;;;;;;6292168;28;20024;-67
2023/04/11 08:30:45;;;;;;;1.88;0.93;;;15.80;59.20;;;;;;6292325;28;20039;-69
2023/04/11 08:33:45;;;;;;;1.25;0.70;;;15.80;58.80;;;;;;6291951;28;20016;-68
2023/04/11 08:36:46;;;;;;;5.78;0.55;;;15.90;58.50;;;;;;6290850;28;20099;-68
2023/04/11 08:39:47;;;;;;;5.32;0.75;;;16.00;58.10;;;;;;6291676;28;20437;-68
2023/04/11 08:42:48;;;;;;;2.63;0.60;;;16.00;57.80;;;;;;6292476;28;20491;-69
2023/04/11 08:45:49;;;;;;;0.50;0.32;;;16.10;57.60;;;;;;6274488;28;20425;-67
2023/04/11 08:48:50;;;;;;;4.70;0.88;;;16.10;57.40;;;;;;6266781;28;20036;-68
2023/04/11 08:51:53;;;;;;;5.57;0.70;;;16.30;57.20;;;;;;6265462;28;20031;-69
2023/04/11 08:54:54;;;;;;;0.93;0.50;;;16.40;56.70;;;;;;6266894;28;20036;-67
2023/04/11 08:57:58;;;;;;;5.72;1.10;;;16.60;56.30;;;;;;6267148;28;20029;-68
2023/04/11 09:01:30;;;;;;;7.20;0.77;;;16.70;56.00;;;;;;6266611;28;20021;-68
2023/04/11 09:04:41;;;;;;;5.85;0.80;;;17.00;55.60;;;;;;6265099;28;20037;-68
2023/04/11 09:07:51;;;;;;;3.08;0.80;;;17.20;55.10;;;;;;6266916;28;20032;-68
2023/04/11 09:11:00;;;;;;;5.30;0.60;;;17.20;54.50;;;;;;6271666;28;20048;-68
2023/04/11 09:14:05;;;;;;;8.93;1.40;;;17.30;54.40;;;;;;6291481;28;20028;-68
2023/04/11 09:17:12;;;;;;;4.30;0.60;;;17.40;54.10;;;;;;6266215;28;20555;-68
2023/04/11 09:20:20;;;;;;;6.05;0.90;;;17.60;53.80;;;;;;6266118;28;20024;-68
2023/04/11 09:23:22;;;;;;;3.13;0.90;;;17.70;53.40;;;;;;6264788;28;20473;-68
2023/04/11 09:26:28;;;;;;;1.25;0.52;;;18.00;53.00;;;;;;6266412;28;20033;-70
2023/04/11 09:29:41;;;;;;;7.30;0.70;;;18.10;52.50;;;;;;6264030;28;20158;-67
2023/04/11 09:32:41;;;;;;;4.22;0.88;;;18.30;51.90;;;;;;6265504;28;20033;-67
2023/04/11 09:35:42;;;;;;;5.22;0.70;;;18.40;51.50;;;;;;6266234;28;20110;-69
2023/04/11 09:38:43;;;;;;;3.53;0.70;;;18.50;51.10;;;;;;6281899;28;20025;-68
2023/04/11 09:41:45;;;;;;;2.58;0.52;;;18.60;50.70;;;;;;6290916;28;20016;-68
2023/04/11 09:44:45;;;;;;;4.28;0.60;;;18.60;50.50;;;;;;6272462;28;20206;-67
2023/04/11 09:47:48;;;;;;;2.72;1.05;;;18.60;50.30;;;;;;6290771;28;20054;-68
2023/04/11 09:50:50;;;;;;;1.65;0.60;;;18.60;49.80;;;;;;6288716;28;20141;-67
2023/04/11 09:53:51;;;;;;;2.75;0.50;;;18.80;49.30;;;;;;6290231;28;20020;-68
2023/04/11 09:56:52;;;;;;;9.98;1.02;;;18.70;48.80;;;;;;6289289;28;20086;-68
2023/04/11 09:59:55;;;;;;;7.50;1.40;;;18.70;48.50;;;;;;6290429;28;20124;-67
2023/04/11 10:02:56;;;;;;;3.72;1.85;;;18.70;48.30;;;;;;6290338;28;20048;-67
2023/04/11 10:05:57;;;;;;;3.95;2.47;;;18.80;48.60;;;;;;6290411;28;20036;-67
2023/04/11 10:09:08;;;;;;;6.28;3.53;;;18.90;49.20;;;;;;6288335;28;20036;-67
2023/04/11 10:12:09;;;;;;;7.20;2.83;;;18.90;49.90;;;;;;6289862;28;20025;-67
2023/04/11 10:15:10;;;;;;;6.28;2.28;;;19.00;50.00;;;;;;6289956;28;20012;-68
2023/04/11 10:18:12;;;;;;;5.20;2.08;;;19.00;49.40;;;;;;6290245;28;20020;-69
2023/04/11 10:21:37;;;;;;;11.98;4.63;;;18.90;49.60;;;;;;6290377;28;20024;-69
2023/04/11 10:24:37;;;;;;;100.00;7.78;;;18.90;50.20;;;;;;6291022;28;20126;-66
2023/04/11 10:27:49;;;;;;;22.02;5.22;;;19.10;50.80;;;;;;6290479;28;20368;-68
2023/04/11 10:31:03;;;;;;;15.70;3.75;;;19.20;51.20;;;;;;6288812;28;20028;-68
2023/04/11 10:34:15;;;;;;;9.48;3.45;;;19.30;51.40;;;;;;6290542;28;20633;-67
2023/04/11 10:37:18;;;;;;;6.78;3.10;;;19.30;51.60;;;;;;6290343;28;20039;-68
2023/04/11 10:40:19;;;;;;;10.43;4.90;;;19.30;51.60;;;;;;6288360;28;20021;-68
2023/04/11 10:43:20;;;;;;;6.20;2.25;;;19.30;51.70;;;;;;6290062;28;20041;-68
2023/04/11 10:46:22;;;;;;;3.22;1.52;;;19.40;51.60;;;;;;6289762;28;20221;-66
2023/04/11 10:49:39;;;;;;;6.82;2.00;;;19.40;51.40;;;;;;6287840;28;20047;-69
2023/04/11 10:52:40;;;;;;;3.95;1.95;;;19.40;51.40;;;;;;6287761;28;20024;-67
2023/04/11 10:55:49;;;;;;;6.22;2.72;;;19.50;51.30;;;;;;6289807;28;20020;-67
2023/04/11 10:58:52;;;;;;;15.32;6.93;;;19.70;51.10;;;;;;6289908;28;20020;-68
2023/04/11 11:01:57;;;;;;;4.95;2.10;;;19.90;50.80;;;;;;6292863;28;20039;-68
2023/04/11 11:05:00;;;;;;;7.38;2.28;;;20.10;50.30;;;;;;6275792;28;20028;-67
2023/04/11 11:08:01;;;;;;;7.30;2.97;;;20.20;50.00;;;;;;6293810;28;20388;-68
2023/04/11 11:11:07;;;;;;;8.23;2.83;;;20.40;49.80;;;;;;6293654;28;20028;-67
2023/04/11 11:14:08;;;;;;;19.55;2.83;;;20.60;49.50;;;;;;6294319;28;20465;-67
2023/04/11 11:17:11;;;;;;;3.78;1.85;;;20.70;49.40;;;;;;6293823;28;20104;-68
2023/04/11 11:20:18;;;;;;;7.07;2.15;;;20.80;49.00;;;;;;6294395;28;20471;-67
2023/04/11 11:23:19;;;;;;;5.65;2.00;;;20.80;49.10;;;;;;6292665;28;20036;-68
2023/04/11 11:26:20;;;;;;;13.73;2.47;;;20.80;49.00;;;;;;6293698;28;20120;-68
2023/04/11 11:29:35;;;;;;;6.38;2.80;;;20.90;48.80;;;;;;6291731;28;20074;-67
2023/04/11 11:32:36;;;;;;;4.00;2.17;;;21.10;48.60;;;;;;6291928;28;20780;-68
2023/04/11 11:35:37;;;;;;;3.17;2.20;;;21.20;48.30;;;;;;6293300;28;20032;-69
2023/04/11 11:38:38;;;;;;;4.45;2.40;;;21.40;48.00;;;;;;6292891;28;20061;-69
2023/04/11 11:41:40;;;;;;;3.15;2.08;;;21.60;47.70;;;;;;6293093;28;20044;-68
2023/04/11 11:44:41;;;;;;;7.07;2.10;;;21.70;47.30;;;;;;6287539;28;20414;-68
2023/04/11 11:47:43;;;;;;;6.35;2.10;;;21.80;47.00;;;;;;6266550;28;20086;-69
2023/04/11 11:50:44;;;;;;;12.35;2.88;;;22.00;46.80;;;;;;6267975;28;20115;-66
2023/04/11 11:54:03;;;;;;;4.90;2.03;;;22.10;46.20;;;;;;6267915;28;20513;-67
2023/04/11 11:57:04;;;;;;;5.85;2.25;;;22.30;45.80;;;;;;6267526;28;20421;-68
2023/04/11 12:00:09;;;;;;;2.60;1.92;;;22.30;45.50;;;;;;6268076;28;20021;-68
2023/04/11 12:03:09;;;;;;;7.75;4.35;;;22.40;45.50;;;;;;6269196;28;20028;-68
2023/04/11 12:06:12;;;;;;;16.67;7.53;;;22.40;45.10;;;;;;6292668;28;20023;-68
2023/04/11 12:09:13;;;;;;;8.65;2.97;;;22.40;45.00;;;;;;6291104;28;20040;-67
2023/04/11 12:12:16;;;;;;;4.88;2.63;;;22.30;45.20;;;;;;6291211;28;20086;-68
2023/04/11 12:15:19;;;;;;;10.40;2.50;;;22.20;45.10;;;;;;6293003;28;20369;-68
2023/04/11 12:18:26;;;;;;;4.95;1.90;;;22.20;45.30;;;;;;6293137;28;20085;-68
2023/04/11 12:21:27;;;;;;;2.80;1.95;;;22.30;45.00;;;;;;6292878;28;20482;-67
2023/04/11 12:24:28;;;;;;;5.07;1.77;;;22.40;44.80;;;;;;6290803;28;20028;-68
2023/04/11 12:27:28;;;;;;;3.00;1.88;;;22.50;44.60;;;;;;6291766;28;20113;-68
2023/04/11 12:30:29;;;;;;;14.73;1.67;;;22.60;44.40;;;;;;6290479;28;20037;-67
2023/04/11 12:33:30;;;;;;;3.00;1.55;;;22.70;44.20;;;;;;6291988;28;20033;-68
2023/04/11 12:36:32;;;;;;;4.55;1.80;;;22.80;43.80;;;;;;6289924;28;20037;-68
2023/04/11 12:39:33;;;;;;;2.53;1.50;;;22.90;43.70;;;;;;6291642;28;20021;-68
2023/04/11 12:42:34;;;;;;;7.25;1.60;;;22.90;43.50;;;;;;6291816;28;20032;-68
2023/04/11 12:45:35;;;;;;;1.23;1.13;;;23.00;43.40;;;;;;6276103;28;20028;-68
2023/04/11 12:48:36;;;;;;;42.35;3.30;;;22.90;42.90;;;;;;6266420;28;20025;-68
2023/04/11 12:51:36;;;;;;;7.63;1.38;;;22.90;42.70;;;;;;6269696;28;20028;-68
2023/04/11 12:54:37;;;;;;;13.70;1.60;;;23.00;42.60;;;;;;6291560;28;20059;-68
2023/04/11 12:57:38;;;;;;;3.22;1.05;;;23.30;42.10;;;;;;6289652;28;20111;-68
2023/04/11 13:00:39;;;;;;;6.90;1.38;;;23.90;41.20;;;;;;6290728;28;20033;-68
2023/04/11 13:03:40;;;;;;;2.05;0.98;;;25.10;39.60;;;;;;6291505;28;20100;-67
2023/04/11 13:06:41;;;;;;;2.95;1.20;;;26.10;37.90;;;;;;6292436;28;20107;-68
2023/04/11 13:09:46;;;;;;;1.95;1.13;;;27.00;36.40;;;;;;6292116;28;20065;-68
2023/04/11 13:12:48;;;;;;;5.88;1.33;;;27.90;34.60;;;;;;6290605;28;20461;-69
2023/04/11 13:15:49;;;;;;;3.72;1.10;;;28.90;33.40;;;;;;6289115;28;20025;-68
2023/04/11 13:18:50;;;;;;;3.83;1.33;;;29.60;32.40;;;;;;6290176;28;20146;-68
2023/04/11 13:21:51;;;;;;;5.10;1.52;;;29.90;31.30;;;;;;6289935;28;20025;-68
2023/04/11 13:24:52;;;;;;;1.35;1.20;;;29.90;30.60;;;;;;6291655;28;20031;-68
2023/04/11 13:27:53;;;;;;;2.75;1.10;;;29.80;30.50;;;;;;6290654;28;20024;-68
2023/04/11 13:30:54;;;;;;;3.17;1.00;;;30.00;30.10;;;;;;6292549;28;20032;-67
2023/04/11 13:33:56;;;;;;;5.53;1.10;;;30.50;29.30;;;;;;6289799;28;20491;-68
2023/04/11 13:36:57;;;;;;;2.30;0.93;;;31.00;28.60;;;;;;6287087;28;20021;-69
2023/04/11 13:39:58;;;;;;;1.33;0.90;;;31.50;28.10;;;;;;6265499;28;20078;-69
2023/04/11 13:42:58;;;;;;;1.65;0.70;;;31.90;27.60;;;;;;6266951;28;20107;-70
2023/04/11 13:46:00;;;;;;;1.42;0.68;;;32.10;27.20;;;;;;6266199;28;20333;-68
2023/04/11 13:49:00;;;;;;;3.63;0.60;;;32.10;27.00;;;;;;6263733;28;20033;-69
2023/04/11 13:52:01;;;;;;;5.05;0.90;;;31.90;26.70;;;;;;6264529;28;20460;-68
2023/04/11 13:55:02;;;;;;;0.57;0.57;;;31.50;26.90;;;;;;6265201;28;20199;-68
2023/04/11 13:58:03;;;;;;;2.65;1.00;;;31.20;27.00;;;;;;6288132;28;20079;-68
2023/04/11 14:01:05;;;;;;;1.98;0.88;;;30.80;27.10;;;;;;6288573;28;20406;-69
2023/04/11 14:04:06;;;;;;;4.50;0.73;;;30.50;27.00;;;;;;6289807;28;20076;-69
2023/04/11 14:07:07;;;;;;;1.00;0.70;;;30.10;27.10;;;;;;6289249;28;20044;-68
2023/04/11 14:10:08;;;;;;;1.63;0.73;;;29.60;27.40;;;;;;6289614;28;20024;-67
2023/04/11 14:13:09;;;;;;;2.25;0.80;;;29.00;27.90;;;;;;6287581;28;20056;-68
2023/04/11 14:16:10;;;;;;;1.63;0.70;;;28.40;28.50;;;;;;6289563;28;20023;-68
2023/04/11 14:19:11;;;;;;;2.30;0.50;;;27.90;28.80;;;;;;6271121;28;20033;-67
2023/04/11 14:22:12;;;;;;;2.58;0.80;;;27.50;29.20;;;;;;6290112;28;20070;-68
2023/04/11 14:25:14;;;;;;;1.60;0.70;;;27.00;29.40;;;;;;6288638;28;20070;-69
2023/04/11 14:28:16;;;;;;;3.63;0.73;;;26.60;29.90;;;;;;6289648;28;20052;-68
2023/04/11 14:31:17;;;;;;;3.22;1.13;;;26.30;30.30;;;;;;6290288;28;20052;-67
2023/04/11 14:34:17;;;;;;;1.15;0.70;;;26.00;30.70;;;;;;6291162;28;20028;-68
2023/04/11 14:37:19;;;;;;;2.22;1.25;;;25.80;31.10;;;;;;6295368;28;20098;-68
2023/04/11 14:40:20;;;;;;;1.05;0.90;;;25.70;31.40;;;;;;6294824;28;20020;-67
2023/04/11 14:43:20;;;;;;;2.13;0.85;;;25.60;31.70;;;;;;6295224;28;20062;-67
2023/04/11 14:46:21;;;;;;;2.75;0.70;;;25.40;31.90;;;;;;6272720;28;20028;-68
2023/04/11 14:49:22;;;;;;;1.55;0.68;;;25.30;32.00;;;;;;6268231;28;20033;-68
2023/04/11 14:52:23;;;;;;;2.47;0.80;;;25.10;32.30;;;;;;6279016;28;20063;-66
2023/04/11 14:55:24;;;;;;;3.13;0.98;;;24.90;32.60;;;;;;6294722;28;20422;-68
2023/04/11 14:58:25;;;;;;;1.15;0.60;;;24.70;32.90;;;;;;6293915;28;20440;-68
2023/04/11 15:01:26;;;;;;;2.60;0.73;;;24.60;33.00;;;;;;6293101;28;20021;-67
2023/04/11 15:04:26;;;;;;;2.45;0.65;;;24.50;33.10;;;;;;6292786;28;20119;-68
2023/04/11 15:07:27;;;;;;;2.78;0.82;;;24.40;33.10;;;;;;6294384;28;20032;-67
2023/04/11 15:10:29;;;;;;;8.30;0.60;;;24.30;33.10;;;;;;6293727;28;20027;-67
2023/04/11 15:13:30;;;;;;;0.88;0.60;;;24.20;33.30;;;;;;6293926;28;20042;-68
2023/04/11 15:16:31;;;;;;;2.92;0.57;;;24.00;33.40;;;;;;6293891;28;20155;-67
2023/04/11 15:19:32;;;;;;;0.60;0.57;;;23.90;33.70;;;;;;6293556;28;20055;-68
2023/04/11 15:22:33;;;;;;;1.75;0.50;;;23.80;34.70;;;;;;6292072;28;20090;-68
2023/04/11 15:25:34;;;;;;;0.55;0.52;;;23.70;34.00;;;;;;6294001;28;20139;-67
2023/04/11 15:28:36;;;;;;;0.57;0.57;;;23.60;34.30;;;;;;6292272;28;20028;-68
2023/04/11 15:31:37;;;;;;;2.65;0.85;;;23.40;34.40;;;;;;6272742;28;20033;-67
2023/04/11 15:34:39;;;;;;;2.15;0.70;;;23.30;34.70;;;;;;6268197;28;20025;-68
2023/04/11 15:37:40;;;;;;;2.42;0.50;;;23.30;34.70;;;;;;6268252;28;20489;-67
2023/04/11 15:40:41;;;;;;;3.10;0.85;;;23.20;34.70;;;;;;6268520;28;20023;-69
2023/04/11 15:43:42;;;;;;;4.68;1.02;;;23.20;34.80;;;;;;6268439;28;20052;-68
2023/04/11 15:46:44;;;;;;;2.45;0.75;;;23.20;34.90;;;;;;6268133;28;20489;-68
2023/04/11 15:49:45;;;;;;;3.55;0.63;;;23.30;35.00;;;;;;6267921;28;20033;-68